Terminal Aerodrome Forecast
Issued by NWS

Home | Current Version | Previous Version | Text Only | Print | Product List | Glossary On
Versions: 1 2 3 4 5 6 7 8 9 10 11 12 13 14
000
FTUS42 KFFC 280800 AAA
TAFRYY
TAF AMD
KRYY 280845Z 2809/2906 26006KT P6SM VCSH SCT035 BKN060
      TEMPO 2810/2814 5SM -SHRA BKN035
     FM281400 29008G16KT P6SM VCSH BKN040
     FM281800 31010G18KT P6SM SCT050
     FM290100 32008KT P6SM SCT100=

USA.gov is the U.S. government's official web portal to all federal, state and local government web resources and services.